Warning: Javascript must be enabled to use all the features on this page!


Page Loading - Please Wait...

Click to hideNews Bulletins

Peak Streamflow for the Nation

USGS 11458500 SONOMA C A AGUA CALIENTE CA

Sonoma County, California
Hydrologic Unit Code 18050002
Latitude  38°19'24", Longitude 122°29'36" NAD27
Drainage area 58.4  square miles
Gage datum 94.28 feet above NGVD29
Output formats
Table
Graph
Tab-separated file
peakfq (watstore) format
Reselect output format
Water
Year
Date Gage
Height
(feet)
Stream-
flow
(cfs)
1956 1955-12-22 17.10 8,880
1957 1957-02-24 7.59 1,450
1958 1958-02-24 14.17 6,330
1959 1959-02-16 12.15 4,690
1960 1960-02-08 14.40 6,530
1961 1961-01-31 8.42 2,300
1962 1962-02-13 13.25 5,550
1963 1963-01-31 12.17 4,710
1964 1964-01-20 11.69 4,360
1965 1965-01-05 15.56 7,520
1966 1966-01-05 13.60 8,180
1967 1967-01-21 13.106 7,780
1968 1968-01-29 11.50 5,750
1969 1969-01-13 15.506 8,270
1970 1970-01-21 13.57 6,570
1971 1970-12-03 15.26 8,390
1972 1971-12-27 5.02 622
1973 1973-01-16 15.30 8,830
1974 1974-03-30 10.49 4,290
1975 1975-03-21 13.42 6,910
1976 1976-02-29 3.58 215
1977 1977-03-15 4.88 101
1978 1978-01-14 13.68 7,110
1979 1979-01-11 13.67 7,120
1980 1980-02-17 12.54 5,900
1981 1981-01-27 9.27 3,040
2002 2001-12-01 22.12 6,670
2003 2002-12-16 28.05 13,600
2004 2003-12-29 24.68 9,390
2005 2004-12-27 20.93 5,590
2006 2005-12-31 32.51 20,300
2007 2006-12-26 16.07 2,060
2008 2008-01-04 23.18 7,860
2009 2009-02-22 18.43 3,610
2010 2010-01-20 22.60 7,260
2011 2011-03-20 20.51 5,290
2012 2012-03-14 18.09 3,360
2013 2012-11-30 25.61 10,600
2014 2014-02-09 18.76 3,450
2015 2014-12-11 24.33 9,280
2016 2016-03-05 20.02 5,010
2017 2017-02-07 24.68 8,690
2018 2018-03-22 18.71 3,720
2019 2019-02-26 25.77 9,770
?
  Peak Gage-Height Qualification Codes.